createdAt,value
2018-08-11T00:00:32.617Z,61.31
2018-08-11T00:01:13.118Z,61.09
2018-08-11T00:01:53.605Z,61.47
2018-08-11T00:02:34.104Z,61.57
2018-08-11T00:03:14.639Z,61.09
2018-08-11T00:03:55.136Z,61.28
2018-08-11T00:04:35.657Z,61.57
2018-08-11T00:05:16.158Z,61.47
2018-08-11T00:05:56.630Z,61.47
2018-08-11T00:06:37.127Z,61.28
2018-08-11T00:07:17.631Z,61.38
2018-08-11T00:07:58.141Z,61.09
2018-08-11T00:08:38.661Z,61.93
2018-08-11T00:09:19.168Z,62.05
2018-08-11T00:09:59.977Z,61.83
2018-08-11T00:10:40.756Z,61.83
2018-08-11T00:11:21.845Z,61.74
2018-08-11T00:12:04.045Z,61.83
2018-08-11T00:12:44.968Z,62.41
2018-08-11T00:13:25.966Z,62.02
2018-08-11T00:14:06.242Z,62.02
2018-08-11T00:14:46.747Z,62.51
2018-08-11T00:15:27.256Z,62.12
2018-08-11T00:16:07.739Z,62.02
2018-08-11T00:16:48.211Z,62.12
2018-08-11T00:17:28.711Z,62.22
2018-08-11T00:18:09.202Z,62.25
2018-08-11T00:18:49.680Z,62.15
2018-08-11T00:19:30.177Z,61.96
2018-08-11T00:20:10.670Z,62.22
2018-08-11T00:20:51.178Z,62.12
2018-08-11T00:21:31.722Z,62.12
2018-08-11T00:22:12.203Z,62.15
2018-08-11T00:22:52.711Z,62.12
2018-08-11T00:23:33.211Z,62.12
2018-08-11T00:24:13.705Z,62.12
2018-08-11T00:24:54.205Z,61.57
2018-08-11T00:25:34.709Z,61.86
2018-08-11T00:26:15.238Z,62.02
2018-08-11T00:26:55.705Z,62.41
2018-08-11T00:27:36.220Z,61.74
2018-08-11T00:28:16.737Z,62.6
2018-08-11T00:28:57.231Z,62.12
2018-08-11T00:29:37.739Z,62.12
2018-08-11T00:30:18.242Z,61.83
2018-08-11T00:30:58.706Z,62.12
2018-08-11T00:31:39.244Z,62.02
2018-08-11T00:32:19.712Z,62.31
2018-08-11T00:33:00.191Z,62.31
2018-08-11T00:33:40.701Z,62.02
2018-08-11T00:34:21.192Z,62.15
2018-08-11T00:35:01.668Z,62.05
2018-08-11T00:35:42.183Z,62.34
2018-08-11T00:36:22.718Z,61.83
2018-08-11T00:37:03.193Z,61.93
2018-08-11T00:37:43.686Z,62.02
2018-08-11T00:38:24.224Z,61.83
2018-08-11T00:39:04.706Z,61.74
2018-08-11T00:39:45.178Z,62.51
2018-08-11T00:40:25.674Z,62.41
2018-08-11T00:41:06.190Z,62.89
2018-08-11T00:41:46.724Z,63.37
2018-08-11T00:42:27.275Z,62.6
2018-08-11T00:43:07.776Z,63.34
2018-08-11T00:43:48.241Z,63.34
2018-08-11T00:44:28.740Z,63.24
2018-08-11T00:45:09.257Z,63.54
2018-08-11T00:45:49.801Z,63.63
2018-08-11T00:46:30.313Z,63.82
2018-08-11T00:47:10.823Z,63.73
2018-08-11T00:47:52.056Z,63.82
2018-08-11T00:48:32.588Z,64.02
2018-08-11T00:49:13.090Z,64.11
2018-08-11T00:49:53.550Z,64.5
2018-08-11T00:50:34.077Z,64.02
2018-08-11T00:51:14.641Z,64.4
2018-08-11T00:51:55.132Z,64.11
2018-08-11T00:52:35.619Z,63.73
2018-08-11T00:53:16.114Z,64.11
2018-08-11T00:53:56.640Z,64.02
2018-08-11T00:54:37.177Z,63.92
2018-08-11T00:55:17.655Z,64.02
2018-08-11T00:55:58.123Z,63.63
2018-08-11T00:56:38.651Z,63.54
2018-08-11T00:57:19.150Z,63.24
2018-08-11T00:57:59.665Z,63.44
2018-08-11T00:58:40.146Z,64.08
2018-08-11T00:59:20.643Z,63.63
2018-08-11T01:00:01.137Z,63.15
2018-08-11T01:00:41.641Z,63.34
2018-08-11T01:01:22.144Z,62.96
2018-08-11T01:02:02.626Z,63.41
2018-08-11T01:02:43.128Z,63.12
2018-08-11T01:03:23.636Z,63.31
2018-08-11T01:04:04.126Z,63.21
2018-08-11T01:04:44.644Z,63.12
2018-08-11T01:05:25.157Z,63.21
2018-08-11T01:06:05.693Z,63.34
2018-08-11T01:06:46.162Z,63.15
2018-08-11T01:07:26.727Z,62.83
2018-08-11T01:08:07.197Z,63.02
2018-08-11T01:10:01.163Z,62.86
2018-08-11T01:10:41.670Z,62.73
2018-08-11T01:11:22.174Z,62.73
2018-08-11T01:12:02.695Z,62.63
2018-08-11T01:12:43.230Z,62.73
2018-08-11T01:13:23.742Z,62.86
2018-08-11T01:14:04.265Z,62.86
2018-08-11T01:14:44.758Z,62.86
2018-08-11T01:15:25.265Z,62.96
2018-08-11T01:16:05.750Z,62.86
2018-08-11T01:16:46.278Z,62.76
2018-08-11T01:17:26.783Z,62.57
2018-08-11T01:18:07.300Z,62.86
2018-08-11T01:18:47.794Z,62.83
2018-08-11T01:19:28.300Z,62.73
2018-08-11T01:20:08.787Z,63.31
2018-08-11T01:20:49.277Z,63.12
2018-08-11T01:21:29.775Z,62.54
2018-08-11T01:22:10.229Z,62.93
2018-08-11T01:22:50.736Z,62.93
2018-08-11T01:23:31.240Z,63.12
2018-08-11T01:24:11.741Z,63.41
2018-08-11T01:24:52.243Z,63.41
2018-08-11T01:25:32.751Z,63.31
2018-08-11T01:26:13.206Z,63.21
2018-08-11T01:26:53.708Z,63.5
2018-08-11T01:27:34.202Z,63.06
2018-08-11T01:28:14.697Z,63.06
2018-08-11T01:28:55.177Z,63.15
2018-08-11T01:29:35.668Z,62.96
2018-08-11T01:30:16.168Z,62.86
2018-08-11T01:30:56.646Z,63.41
2018-08-11T01:31:37.137Z,63.15
2018-08-11T01:32:17.620Z,63.15
2018-08-11T01:32:58.125Z,63.06
2018-08-11T01:33:38.621Z,63.15
2018-08-11T01:34:19.116Z,62.76
2018-08-11T01:34:59.644Z,62.76
2018-08-11T01:35:40.119Z,62.76
2018-08-11T01:36:20.618Z,62.86
2018-08-11T01:37:01.120Z,62.76
2018-08-11T01:37:41.641Z,62.86
2018-08-11T01:38:22.158Z,62.76
2018-08-11T01:39:02.659Z,62.86
2018-08-11T01:39:43.444Z,62.66
2018-08-11T01:40:23.969Z,62.48
2018-08-11T01:41:04.474Z,61.99
2018-08-11T01:41:44.972Z,62.38
2018-08-11T01:42:25.463Z,62.09
2018-08-11T01:43:05.965Z,62.28
2018-08-11T01:43:46.479Z,61.71
2018-08-11T01:44:26.991Z,62.09
2018-08-11T01:45:07.501Z,61.99
2018-08-11T01:45:47.974Z,61.99
2018-08-11T01:46:28.477Z,61.8
2018-08-11T01:47:08.981Z,62.09
2018-08-11T01:47:49.507Z,62.28
2018-08-11T01:48:30.004Z,62.48
2018-08-11T01:49:10.529Z,61.99
2018-08-11T01:49:51.050Z,62.09
2018-08-11T01:50:31.563Z,61.9
2018-08-11T01:51:12.070Z,62.38
2018-08-11T01:51:52.596Z,62.66
2018-08-11T01:52:33.107Z,62.48
2018-08-11T01:53:13.630Z,62.28
2018-08-11T01:53:54.148Z,62.28
2018-08-11T01:54:34.676Z,62.09
2018-08-11T01:55:15.193Z,62.28
2018-08-11T01:55:55.707Z,62.28
2018-08-11T01:56:36.222Z,61.8
2018-08-11T01:57:16.756Z,61.9
2018-08-11T01:57:57.278Z,61.68
2018-08-11T01:58:37.790Z,62.15
2018-08-11T01:59:18.412Z,61.96
2018-08-11T01:59:58.929Z,61.87
2018-08-11T02:00:39.435Z,62.35
2018-08-11T02:01:19.955Z,61.99
2018-08-11T02:02:00.456Z,62.25
2018-08-11T02:02:40.965Z,61.77
2018-08-11T02:03:21.501Z,61.68
2018-08-11T02:04:02.013Z,61.48
2018-08-11T02:04:42.543Z,61.77
2018-08-11T02:05:23.057Z,62.15
2018-08-11T02:06:03.577Z,62.35
2018-08-11T02:06:44.101Z,62.06
2018-08-11T02:07:24.617Z,62.15
2018-08-11T02:08:05.175Z,62.35
2018-08-11T02:08:45.621Z,62.45
2018-08-11T02:09:26.123Z,62.54
2018-08-11T02:10:06.607Z,62.54
2018-08-11T02:10:47.094Z,62.54
2018-08-11T02:11:27.578Z,62.83
2018-08-11T02:12:08.084Z,62.15
2018-08-11T02:12:48.604Z,61.77
2018-08-11T02:13:29.095Z,62.06
2018-08-11T02:14:09.625Z,61.96
2018-08-11T02:14:50.133Z,61.77
2018-08-11T02:15:30.608Z,62.06
2018-08-11T02:16:11.121Z,61.96
2018-08-11T02:16:51.633Z,61.96
2018-08-11T02:17:32.151Z,62.38
2018-08-11T02:18:12.667Z,61.9
2018-08-11T02:18:53.183Z,61.99
2018-08-11T02:19:33.765Z,61.8
2018-08-11T02:21:47.041Z,62.15
2018-08-11T02:22:27.545Z,61.96
2018-08-11T02:23:08.080Z,61.87
2018-08-11T02:23:48.605Z,62.06
2018-08-11T02:24:29.151Z,62.35
2018-08-11T02:25:09.670Z,62.06
2018-08-11T02:25:50.176Z,62.15
2018-08-11T02:26:30.703Z,62.45
2018-08-11T02:27:11.228Z,62.35
2018-08-11T02:27:51.755Z,62.35
2018-08-11T02:28:32.277Z,62.06
2018-08-11T02:29:12.798Z,62.25
2018-08-11T02:29:53.305Z,62.06
2018-08-11T02:30:33.826Z,61.87
2018-08-11T02:31:14.287Z,62.83
2018-08-11T02:31:54.799Z,63.12
2018-08-11T02:32:35.284Z,62.73
2018-08-11T02:33:15.793Z,62.83
2018-08-11T02:33:56.282Z,63.12
2018-08-11T02:34:36.826Z,63.21
2018-08-11T02:35:17.298Z,62.93
2018-08-11T02:35:57.812Z,62.93
2018-08-11T02:36:38.297Z,63.21
2018-08-11T02:37:18.889Z,63.12
2018-08-11T02:37:59.376Z,62.93
2018-08-11T02:38:39.898Z,62.93
2018-08-11T02:39:20.376Z,63.02
2018-08-11T02:40:00.891Z,62.93
2018-08-11T02:40:41.365Z,62.73
2018-08-11T02:41:21.872Z,62.93
2018-08-11T02:42:02.401Z,62.93
2018-08-11T02:42:42.909Z,62.93
2018-08-11T02:43:23.405Z,63.28
2018-08-11T02:44:03.895Z,63.67
2018-08-11T02:44:44.397Z,63.76
2018-08-11T02:45:24.911Z,63.47
2018-08-11T02:46:05.397Z,63.28
2018-08-11T02:46:45.935Z,63.28
2018-08-11T02:47:26.410Z,63.18
2018-08-11T02:48:06.909Z,62.99
2018-08-11T02:48:47.428Z,63.18
2018-08-11T02:49:27.945Z,63.28
2018-08-11T02:50:08.493Z,63.38
2018-08-11T02:50:48.954Z,62.99
2018-08-11T02:51:29.424Z,63.18
2018-08-11T02:52:09.932Z,63.38
2018-08-11T02:52:50.408Z,64.08
2018-08-11T02:53:30.961Z,63.47
2018-08-11T02:54:11.379Z,63.21
2018-08-11T02:54:51.900Z,63.31
2018-08-11T02:55:32.414Z,63.21
2018-08-11T02:56:12.895Z,63.6
2018-08-11T02:56:53.363Z,63.09
2018-08-11T02:57:33.822Z,63.38
2018-08-11T02:58:14.290Z,63.31
2018-08-11T02:58:54.797Z,63.41
2018-08-11T02:59:35.323Z,63.38
2018-08-11T03:00:15.793Z,63.31
2018-08-11T03:00:56.308Z,63.18
2018-08-11T03:01:36.786Z,63.12
2018-08-11T03:02:17.315Z,63.38
2018-08-11T03:02:57.728Z,63.28
2018-08-11T03:03:38.265Z,63.28
2018-08-11T03:04:18.754Z,63.76
2018-08-11T03:04:59.239Z,63.95
2018-08-11T03:05:39.804Z,63.76
2018-08-11T03:06:20.276Z,64.15
2018-08-11T03:07:00.782Z,63.85
2018-08-11T03:07:41.276Z,64.25
2018-08-11T03:08:21.820Z,64.05
2018-08-11T03:09:02.246Z,64.34
2018-08-11T03:09:42.735Z,64.43
2018-08-11T03:10:23.268Z,64.05
2018-08-11T03:11:03.763Z,64.53
2018-08-11T03:11:44.293Z,64.34
2018-08-11T03:12:24.795Z,64.43
2018-08-11T03:13:05.321Z,63.76
2018-08-11T03:13:45.815Z,63.6
2018-08-11T03:14:26.301Z,63.31
2018-08-11T03:15:06.832Z,64.05
2018-08-11T03:15:47.329Z,63.79
2018-08-11T03:16:27.843Z,63.5
2018-08-11T03:17:08.362Z,63.28
2018-08-11T03:17:48.880Z,64.05
2018-08-11T03:18:29.381Z,64.43
2018-08-11T03:19:09.913Z,64.05
2018-08-11T03:19:50.436Z,64.34
2018-08-11T03:20:30.952Z,64.25
2018-08-11T03:21:11.503Z,64.25
2018-08-11T03:21:52.003Z,63.95
2018-08-11T03:22:32.514Z,64.43
2018-08-11T03:23:13.029Z,64.25
2018-08-11T03:23:53.537Z,64.34
2018-08-11T03:24:34.068Z,64.34
2018-08-11T03:25:14.612Z,64.08
2018-08-11T03:25:55.136Z,63.79
2018-08-11T03:26:35.652Z,63.95
2018-08-11T03:27:16.173Z,63.89
2018-08-11T03:27:56.695Z,63.6
2018-08-11T03:28:37.206Z,63.41
2018-08-11T03:29:17.736Z,63.6
2018-08-11T03:29:58.245Z,63.6
2018-08-11T03:30:38.757Z,64.08
2018-08-11T03:31:19.242Z,64.47
2018-08-11T03:31:59.777Z,64.47
2018-08-11T03:32:40.284Z,64.25
2018-08-11T03:33:20.804Z,63.98
2018-08-11T03:34:01.313Z,63.89
2018-08-11T03:34:41.817Z,63.98
2018-08-11T03:35:22.353Z,63.21
2018-08-11T03:36:02.845Z,63.89
2018-08-11T03:36:43.335Z,64.08
2018-08-11T03:37:23.851Z,63.89
2018-08-11T03:38:04.373Z,63.7
2018-08-11T03:38:44.871Z,63.79
2018-08-11T03:39:25.399Z,63.98
2018-08-11T03:40:05.880Z,63.89
2018-08-11T03:40:46.370Z,63.98
2018-08-11T03:41:26.907Z,63.89
2018-08-11T03:42:07.371Z,64.28
2018-08-11T03:42:47.871Z,63.89
2018-08-11T03:43:28.400Z,63.79
2018-08-11T03:44:08.932Z,63.7
2018-08-11T03:44:49.453Z,63.67
2018-08-11T03:45:29.961Z,63.98
2018-08-11T03:46:10.582Z,63.89
2018-08-11T03:46:51.015Z,63.98
2018-08-11T03:47:31.564Z,63.67
2018-08-11T03:48:12.006Z,64.47
2018-08-11T03:48:52.495Z,64.05
2018-08-11T03:49:32.994Z,64.05
2018-08-11T03:50:13.485Z,64.18
2018-08-11T03:50:54.031Z,63.89
2018-08-11T03:51:34.429Z,63.89
2018-08-11T03:52:14.945Z,63.6
2018-08-11T03:52:55.419Z,63.79
2018-08-11T03:53:35.913Z,63.6
2018-08-11T03:54:16.414Z,63.6
2018-08-11T03:54:56.912Z,63.6
2018-08-11T03:55:37.397Z,63.41
2018-08-11T03:56:17.910Z,63.41
2018-08-11T03:56:58.400Z,63.6
2018-08-11T03:57:38.953Z,63.89
2018-08-11T03:58:19.415Z,63.89
2018-08-11T03:58:59.927Z,63.79
2018-08-11T03:59:40.372Z,63.98
2018-08-11T04:00:20.937Z,63.7
2018-08-11T04:01:01.444Z,63.21
2018-08-11T04:01:41.967Z,63.6
2018-08-11T04:02:22.471Z,63.31
2018-08-11T04:03:02.924Z,63.28
2018-08-11T04:03:43.425Z,63.57
2018-08-11T04:04:23.937Z,63.6
2018-08-11T04:05:04.435Z,63.95
2018-08-11T04:05:44.970Z,64.25
2018-08-11T04:06:25.488Z,64.28
2018-08-11T04:07:06.013Z,64.43
2018-08-11T04:07:46.535Z,64.15
2018-08-11T04:08:27.074Z,64.73
2018-08-11T04:09:07.578Z,64.34
2018-08-11T04:09:48.087Z,64.53
2018-08-11T04:10:28.607Z,64.92
2018-08-11T04:11:09.131Z,64.92
2018-08-11T04:11:49.658Z,64.82
2018-08-11T04:12:30.169Z,64.73
2018-08-11T04:13:10.703Z,64.92
2018-08-11T04:13:51.249Z,65.4
2018-08-11T04:14:31.775Z,65.3
2018-08-11T04:15:12.295Z,65.2
2018-08-11T04:15:52.805Z,65.01
2018-08-11T04:16:33.325Z,65.2
2018-08-11T04:17:13.851Z,65.11
2018-08-11T04:17:54.364Z,65.3
2018-08-11T04:18:34.902Z,65.11
2018-08-11T04:19:15.404Z,65.2
2018-08-11T04:19:55.917Z,65.11
2018-08-11T04:20:36.442Z,65.3
2018-08-11T04:21:16.956Z,65.3
2018-08-11T04:21:57.470Z,65.78
2018-08-11T04:22:38.005Z,65.88
2018-08-11T04:23:18.526Z,65.78
2018-08-11T04:23:59.050Z,65.2
2018-08-11T04:24:39.585Z,65.4
2018-08-11T04:25:20.103Z,65.11
2018-08-11T04:26:00.625Z,65.01
2018-08-11T04:26:41.139Z,65.3
2018-08-11T04:27:21.652Z,65.3
2018-08-11T04:28:02.171Z,65.69
2018-08-11T04:28:42.705Z,65.5
2018-08-11T04:29:23.225Z,65.4
2018-08-11T04:30:03.752Z,65.59
2018-08-11T04:30:44.275Z,65.4
2018-08-11T04:31:24.804Z,65.4
2018-08-11T04:32:05.321Z,65.59
2018-08-11T04:32:45.836Z,65.78
2018-08-11T04:33:26.353Z,65.4
2018-08-11T04:34:06.875Z,65.3
2018-08-11T04:34:47.394Z,65.4
2018-08-11T04:35:27.894Z,65.78
2018-08-11T04:36:08.470Z,65.69
2018-08-11T04:36:48.942Z,65.5
2018-08-11T04:37:29.456Z,65.3
2018-08-11T04:38:09.973Z,65.3
2018-08-11T04:38:50.494Z,65.3
2018-08-11T04:39:31.016Z,65.2
2018-08-11T04:40:11.534Z,65.11
2018-08-11T04:40:52.053Z,64.53
2018-08-11T04:41:32.574Z,64.63
2018-08-11T04:42:13.090Z,64.66
2018-08-11T04:42:53.611Z,64.53
2018-08-11T04:43:34.185Z,64.28
2018-08-11T04:44:14.733Z,64.28
2018-08-11T04:44:55.244Z,64.43
2018-08-11T04:45:35.751Z,64.18
2018-08-11T04:46:16.269Z,64.53
2018-08-11T04:46:56.798Z,64.53
2018-08-11T04:47:37.325Z,64.63
2018-08-11T04:48:17.852Z,64.43
2018-08-11T04:48:58.360Z,64.15
2018-08-11T04:49:38.876Z,64.34
2018-08-11T04:50:19.392Z,64.73
2018-08-11T04:50:59.913Z,64.28
2018-08-11T04:51:40.433Z,64.37
2018-08-11T04:52:20.957Z,64.47
2018-08-11T04:53:01.467Z,63.79
2018-08-11T04:53:41.984Z,63.21
2018-08-11T04:54:22.497Z,63.6
2018-08-11T04:55:03.018Z,63.31
2018-08-11T04:55:43.531Z,63.18
2018-08-11T04:56:24.195Z,63.57
2018-08-11T04:57:04.709Z,63.21
2018-08-11T04:57:45.236Z,63.31
2018-08-11T04:58:25.787Z,63.7
2018-08-11T04:59:06.315Z,63.12
2018-08-11T04:59:46.846Z,63.12
2018-08-11T05:00:27.363Z,62.54
2018-08-11T05:01:07.871Z,62.73
2018-08-11T05:01:48.394Z,63.12
2018-08-11T05:02:28.904Z,62.63
2018-08-11T05:03:09.549Z,63.21
2018-08-11T05:03:50.082Z,62.63
2018-08-11T05:04:30.599Z,63.02
2018-08-11T05:05:11.122Z,62.35
2018-08-11T05:05:51.638Z,63.31
2018-08-11T05:06:32.151Z,63.31
2018-08-11T05:07:12.668Z,62.73
2018-08-11T05:07:53.183Z,62.63
2018-08-11T05:08:33.738Z,62.45
2018-08-11T05:09:14.255Z,62.35
2018-08-11T05:09:54.782Z,62.06
2018-08-11T05:10:35.304Z,61.77
2018-08-11T05:11:15.821Z,62.38
2018-08-11T05:11:56.350Z,61.77
2018-08-11T05:12:36.874Z,62.09
2018-08-11T05:13:17.404Z,61.9
2018-08-11T05:13:57.937Z,61.68
2018-08-11T05:14:38.456Z,61.77
2018-08-11T05:15:18.982Z,61.96
2018-08-11T05:15:59.483Z,62.35
2018-08-11T05:16:40.011Z,61.96
2018-08-11T05:17:20.526Z,61.68
2018-08-11T05:18:01.039Z,62.45
2018-08-11T05:18:41.556Z,61.68
2018-08-11T05:19:22.068Z,62.25
2018-08-11T05:20:02.590Z,62.35
2018-08-11T05:20:43.106Z,61.71
2018-08-11T05:21:23.621Z,61.71
2018-08-11T05:22:04.150Z,61.22
2018-08-11T05:22:44.662Z,61.32
2018-08-11T05:23:25.178Z,61.22
2018-08-11T05:24:05.706Z,61.13
2018-08-11T05:24:46.237Z,60.74
2018-08-11T05:25:26.760Z,60.45
2018-08-11T05:26:07.294Z,60.48
2018-08-11T05:26:47.879Z,60.58
2018-08-11T05:27:28.360Z,60.1
2018-08-11T05:28:08.876Z,59.42
2018-08-11T05:28:49.398Z,59.52
2018-08-11T05:29:29.924Z,59.45
2018-08-11T05:30:10.442Z,59.55
2018-08-11T05:30:50.974Z,58.97
2018-08-11T05:31:31.481Z,59.06
2018-08-11T05:32:12.025Z,59.16
2018-08-11T05:32:52.537Z,59.25
2018-08-11T05:33:33.048Z,59.25
2018-08-11T05:34:13.574Z,58.68
2018-08-11T05:34:54.085Z,58.77
2018-08-11T05:35:34.606Z,58.48
2018-08-11T05:36:15.139Z,58.48
2018-08-11T05:36:55.671Z,58.58
2018-08-11T05:37:36.181Z,59.35
2018-08-11T05:38:16.713Z,59.06
2018-08-11T05:38:57.276Z,59.16
2018-08-11T05:39:37.801Z,59.35
2018-08-11T05:40:18.354Z,59.35
2018-08-11T05:40:58.856Z,59.06
2018-08-11T05:41:39.414Z,58.9
2018-08-11T05:42:19.928Z,58.61
2018-08-11T05:43:00.436Z,58.22
2018-08-11T05:43:40.949Z,58.22
2018-08-11T05:44:21.472Z,58.12
2018-08-11T05:45:02.214Z,58.22
2018-08-11T05:45:42.717Z,58.12
2018-08-11T05:46:23.254Z,58.03
2018-08-11T05:47:03.762Z,57.93
2018-08-11T05:47:44.286Z,57.64
2018-08-11T05:48:24.801Z,57.93
2018-08-11T05:49:05.323Z,57.84
2018-08-11T05:49:45.851Z,57.93
2018-08-11T05:50:26.371Z,57.93
2018-08-11T05:51:06.888Z,57.74
2018-08-11T05:51:47.393Z,57.74
2018-08-11T05:52:27.912Z,57.35
2018-08-11T05:53:08.424Z,57.74
2018-08-11T05:53:48.940Z,57.84
2018-08-11T05:54:29.451Z,57.35
2018-08-11T05:55:10.331Z,57.64
2018-08-11T05:55:50.910Z,57.74
2018-08-11T05:56:31.437Z,57.74
2018-08-11T05:57:11.993Z,57.64
2018-08-11T05:57:52.482Z,58.32
2018-08-11T05:58:33.745Z,58.22
2018-08-11T05:59:15.189Z,58.22
2018-08-11T05:59:55.751Z,58.58
2018-08-11T06:00:36.231Z,58.48
2018-08-11T06:01:16.807Z,58.39
2018-08-11T06:01:57.425Z,58.29
2018-08-11T06:02:38.059Z,58.58
2018-08-11T06:03:18.520Z,58.32
2018-08-11T06:03:59.094Z,58.77
2018-08-11T06:04:40.665Z,58.68
2018-08-11T06:05:21.280Z,58.58
2018-08-11T06:06:01.773Z,58.12
2018-08-11T06:06:42.281Z,58.61
2018-08-11T06:07:22.831Z,58.12
2018-08-11T06:08:03.296Z,58.32
2018-08-11T06:08:43.785Z,58.12
2018-08-11T06:09:24.292Z,58.22
2018-08-11T06:10:04.772Z,58.22
2018-08-11T06:10:45.327Z,58.61
2018-08-11T06:11:25.740Z,58.12
2018-08-11T06:12:06.237Z,58.22
2018-08-11T06:12:46.768Z,58.12
2018-08-11T06:13:27.246Z,58.22
2018-08-11T06:14:07.734Z,58.12
2018-08-11T06:14:48.249Z,58.03
2018-08-11T06:15:28.753Z,58.32
2018-08-11T06:16:09.224Z,58.03
2018-08-11T06:16:49.726Z,58.03
2018-08-11T06:17:30.184Z,57.87
2018-08-11T06:18:10.699Z,57.57
2018-08-11T06:18:51.159Z,57.38
2018-08-11T06:19:31.659Z,57.38
2018-08-11T06:20:12.177Z,57.96
2018-08-11T06:20:52.707Z,57.77
2018-08-11T06:21:33.231Z,57.38
2018-08-11T06:22:13.747Z,57.67
2018-08-11T06:22:54.266Z,57.57
2018-08-11T06:23:34.781Z,57.57
2018-08-11T06:24:15.294Z,56.9
2018-08-11T06:24:55.829Z,56.71
2018-08-11T06:25:36.355Z,56.9
2018-08-11T06:26:16.875Z,56.99
2018-08-11T06:26:57.388Z,56.35
2018-08-11T06:27:37.924Z,56.35
2018-08-11T06:28:18.465Z,56.54
2018-08-11T06:28:59.025Z,56.35
2018-08-11T06:29:39.607Z,56.54
2018-08-11T06:30:20.081Z,56.05
2018-08-11T06:31:00.595Z,55.87
2018-08-11T06:31:41.110Z,56.05
2018-08-11T06:32:21.662Z,55.7
2018-08-11T06:33:02.183Z,55.99
2018-08-11T06:33:42.692Z,56.28
2018-08-11T06:34:23.214Z,55.41
2018-08-11T06:35:03.738Z,55.51
2018-08-11T06:35:44.258Z,55.31
2018-08-11T06:36:24.760Z,55.89
2018-08-11T06:37:05.273Z,55.6
2018-08-11T06:37:45.794Z,55.89
2018-08-11T06:38:26.316Z,55.31
2018-08-11T06:39:06.822Z,54.83
2018-08-11T06:39:47.652Z,54.15
2018-08-11T06:40:28.190Z,54.63
2018-08-11T06:41:08.685Z,54.27
2018-08-11T06:41:49.194Z,54.44
2018-08-11T06:42:29.711Z,54.57
2018-08-11T06:43:10.238Z,54.35
2018-08-11T06:43:50.777Z,54.15
2018-08-11T06:44:31.308Z,53.79
2018-08-11T06:45:11.877Z,53.59
2018-08-11T06:45:52.395Z,53.41
2018-08-11T06:46:32.949Z,53.69
2018-08-11T06:47:13.442Z,53.59
2018-08-11T06:47:53.952Z,53.59
2018-08-11T06:48:34.496Z,54.15
2018-08-11T06:49:15.013Z,54.15
2018-08-11T06:49:55.529Z,54.25
2018-08-11T06:50:36.056Z,54.63
2018-08-11T06:51:16.577Z,54.47
2018-08-11T06:51:57.104Z,54.15
2018-08-11T06:52:37.604Z,54.15
2018-08-11T06:53:18.054Z,54.37
2018-08-11T06:53:58.664Z,54.44
2018-08-11T06:54:39.101Z,54.17
2018-08-11T06:55:19.629Z,53.79
2018-08-11T06:56:00.137Z,53.5
2018-08-11T06:56:40.672Z,53.5
2018-08-11T06:57:21.190Z,53.41
2018-08-11T06:58:01.713Z,53.41
2018-08-11T06:58:42.241Z,53.79
2018-08-11T06:59:22.768Z,53.21
2018-08-11T07:00:03.357Z,53.21
2018-08-11T07:00:43.899Z,53.31
2018-08-11T07:01:24.424Z,53.41
2018-08-11T07:02:04.940Z,53.21
2018-08-11T07:02:45.473Z,53.31
2018-08-11T07:03:25.996Z,53.33
2018-08-11T07:04:06.667Z,52.85
2018-08-11T07:04:47.072Z,52.39
2018-08-11T07:05:27.630Z,52.68
2018-08-11T07:06:08.221Z,52.66
2018-08-11T07:06:48.704Z,52.66
2018-08-11T07:07:29.143Z,52.46
2018-08-11T07:08:09.660Z,52.27
2018-08-11T07:08:50.152Z,52.2
2018-08-11T07:09:30.698Z,51.98
2018-08-11T07:10:11.159Z,52.2
2018-08-11T07:10:51.705Z,51.9
2018-08-11T07:11:32.231Z,52.17
2018-08-11T07:12:12.764Z,52.27
2018-08-11T07:12:53.297Z,52.2
2018-08-11T07:13:33.765Z,52.29
2018-08-11T07:14:14.374Z,52.39
2018-08-11T07:14:54.873Z,52.29
2018-08-11T07:15:35.340Z,52.1
2018-08-11T07:16:15.883Z,52.39
2018-08-11T07:16:56.500Z,52.39
2018-08-11T07:17:36.992Z,52.78
2018-08-11T07:18:17.498Z,52.68
2018-08-11T07:18:58.038Z,52.29
2018-08-11T07:19:38.510Z,52.49
2018-08-11T07:20:19.066Z,52.49
2018-08-11T07:20:59.652Z,52.49
2018-08-11T07:21:40.258Z,52.9
2018-08-11T07:22:20.758Z,52.68
2018-08-11T07:23:01.282Z,52.71
2018-08-11T07:23:41.873Z,52.68
2018-08-11T07:24:22.453Z,52.29
2018-08-11T07:25:02.978Z,52.78
2018-08-11T07:25:43.478Z,52.2
2018-08-11T07:26:24.031Z,52.03
2018-08-11T07:27:04.592Z,52
2018-08-11T07:27:45.021Z,52.03
2018-08-11T07:28:25.524Z,51.84
2018-08-11T07:29:06.072Z,52.03
2018-08-11T07:29:46.538Z,52.03
2018-08-11T07:30:27.036Z,51.84
2018-08-11T07:31:07.546Z,51.64
2018-08-11T07:31:48.055Z,51.54
2018-08-11T07:32:28.579Z,51.93
2018-08-11T07:33:09.082Z,51.25
2018-08-11T07:33:49.678Z,51.54
2018-08-11T07:34:30.110Z,51.25
2018-08-11T07:35:10.670Z,51.45
2018-08-11T07:35:51.138Z,51.54
2018-08-11T07:36:31.798Z,51.16
2018-08-11T07:37:12.179Z,51.16
2018-08-11T07:37:52.874Z,50.99
2018-08-11T07:38:33.413Z,50.12
2018-08-11T07:39:13.971Z,50.7
2018-08-11T07:39:54.469Z,50.41
2018-08-11T07:40:34.949Z,50.5
2018-08-11T07:41:18.125Z,50.31
2018-08-11T07:41:59.039Z,50.38
2018-08-11T07:42:39.671Z,50.38
2018-08-11T07:43:21.254Z,50.48
2018-08-11T07:44:01.893Z,50.57
2018-08-11T07:44:42.468Z,50.38
2018-08-11T07:45:23.214Z,49.99
2018-08-11T07:46:03.813Z,50.09
2018-08-11T07:46:44.547Z,49.9
2018-08-11T07:47:25.087Z,50.19
2018-08-11T07:48:05.552Z,50.67
2018-08-11T07:48:52.338Z,50.57
2018-08-11T07:49:33.153Z,50.48
2018-08-11T07:50:13.875Z,50.65
2018-08-11T07:50:54.258Z,50.35
2018-08-11T07:51:35.059Z,50.84
2018-08-11T07:52:15.589Z,50.55
2018-08-11T07:52:56.859Z,50.84
2018-08-11T07:53:37.842Z,51.32
2018-08-11T07:54:18.570Z,51.52
2018-08-11T07:56:24.496Z,51.04
2018-08-11T07:57:05.004Z,51.32
2018-08-11T07:57:45.601Z,51.52
2018-08-11T07:58:26.142Z,51.13
2018-08-11T07:59:06.608Z,50.84
2018-08-11T07:59:47.712Z,50.55
2018-08-11T08:00:28.265Z,50.55
2018-08-11T08:01:08.717Z,50.94
2018-08-11T08:01:49.254Z,51.23
2018-08-11T08:02:29.911Z,51.23
2018-08-11T08:03:10.423Z,51.23
2018-08-11T08:03:51.191Z,51.42
2018-08-11T08:04:31.643Z,51.62
2018-08-11T08:05:12.192Z,51.23
2018-08-11T08:05:52.696Z,51.23
2018-08-11T08:06:33.237Z,51.23
2018-08-11T08:07:13.943Z,51.13
2018-08-11T08:07:54.695Z,50.94
2018-08-11T08:08:35.146Z,51.35
2018-08-11T08:09:15.999Z,51.06
2018-08-11T08:09:56.933Z,51.13
2018-08-11T08:10:37.634Z,51.13
2018-08-11T08:11:18.305Z,51.16
2018-08-11T08:11:58.759Z,50.77
2018-08-11T08:12:39.791Z,50.74
2018-08-11T08:13:20.322Z,50.94
2018-08-11T08:14:00.930Z,51.13
2018-08-11T08:14:41.747Z,51.32
2018-08-11T08:15:22.335Z,51.52
2018-08-11T08:16:02.793Z,51.32
2018-08-11T08:16:43.272Z,51.42
2018-08-11T08:17:23.814Z,51.52
2018-08-11T08:18:04.393Z,51.25
2018-08-11T08:18:45.023Z,51.62
2018-08-11T08:19:25.646Z,51.42
2018-08-11T08:20:06.295Z,51.32
2018-08-11T08:20:46.800Z,51.52
2018-08-11T08:21:27.332Z,51.13
2018-08-11T08:22:08.048Z,51.54
2018-08-11T08:22:48.600Z,51.64
2018-08-11T08:23:29.662Z,51.45
2018-08-11T08:24:10.299Z,51.54
2018-08-11T08:24:50.791Z,51.23
2018-08-11T08:25:31.401Z,51.42
2018-08-11T08:26:12.081Z,51.9
2018-08-11T08:26:52.914Z,51.62
2018-08-11T08:27:33.223Z,51.62
2018-08-11T08:28:14.107Z,51.72
2018-08-11T08:28:54.676Z,51.23
2018-08-11T08:29:37.314Z,51.42
2018-08-11T08:30:17.773Z,51.06
2018-08-11T08:30:58.857Z,51.16
2018-08-11T08:31:41.273Z,51.54
2018-08-11T08:32:21.851Z,51.74
2018-08-11T08:33:02.314Z,51.74
2018-08-11T08:33:42.813Z,51.52
2018-08-11T08:34:23.316Z,51.35
2018-08-11T08:35:05.590Z,51.45
2018-08-11T08:35:46.439Z,51.16
2018-08-11T08:36:26.644Z,51.35
2018-08-11T08:37:07.742Z,51.25
2018-08-11T08:37:48.673Z,51.45
2018-08-11T08:38:29.325Z,51.64
2018-08-11T08:39:09.808Z,51.28
2018-08-11T08:39:50.639Z,50.7
2018-08-11T08:40:31.375Z,50.79
2018-08-11T08:41:11.855Z,50.41
2018-08-11T08:41:53.236Z,49.92
2018-08-11T08:42:33.531Z,50.34
2018-08-11T08:43:14.028Z,50.53
2018-08-11T08:43:54.738Z,50.14
2018-08-11T08:44:35.270Z,50.53
2018-08-11T08:45:15.740Z,50.34
2018-08-11T08:45:56.280Z,49.92
2018-08-11T08:46:36.750Z,50.43
2018-08-11T08:47:17.372Z,50.62
2018-08-11T08:47:57.831Z,50.41
2018-08-11T08:48:38.293Z,50.31